Time;durP1;ratioP1;P1;durP2;ratioP2;P2;SDS_P1;SDS_P2;PMS_P1;PMS_P2;Temp;Humidity;BMP_temperature;BMP_pressure;BME280_temperature;BME280_humidity;BME280_pressure;Samples;Min_cycle;Max_cycle;Signal;HPM_P1;HPM_P2
2023/06/06 00:00:35;;;;;;;4.60;2.88;;;16.50;1.00;;;;;;7357816;19;20018;-68
2023/06/06 00:03:05;;;;;;;3.30;3.00;;;16.50;1.00;;;;;;7361011;19;20015;-69
2023/06/06 00:05:35;;;;;;;3.67;2.80;;;16.40;1.00;;;;;;7358330;19;20553;-69
2023/06/06 00:08:07;;;;;;;3.15;2.78;;;16.40;1.00;;;;;;7360093;19;20056;-69
2023/06/06 00:10:38;;;;;;;4.25;3.67;;;16.20;1.00;;;;;;7382145;19;20022;-67
2023/06/06 00:13:14;;;;;;;4.43;3.08;;;16.30;1.00;;;;;;7358143;19;20014;-68
2023/06/06 00:15:44;;;;;;;5.22;3.17;;;16.20;1.00;;;;;;7358116;19;20516;-68
2023/06/06 00:18:15;;;;;;;6.15;3.00;;;16.20;1.00;;;;;;7366031;19;20014;-68
2023/06/06 00:20:45;;;;;;;3.28;2.88;;;16.20;1.00;;;;;;7362813;19;20015;-70
2023/06/06 00:23:15;;;;;;;4.25;3.17;;;16.10;1.00;;;;;;7369549;19;20018;-69
2023/06/06 00:25:45;;;;;;;7.57;3.45;;;16.10;1.00;;;;;;7387078;19;20035;-69
2023/06/06 00:28:18;;;;;;;3.83;3.40;;;16.10;1.00;;;;;;7364976;19;20762;-69
2023/06/06 00:30:48;;;;;;;5.55;3.70;;;16.00;1.00;;;;;;7362985;19;20039;-69
2023/06/06 00:33:17;;;;;;;3.92;3.40;;;15.90;1.00;;;;;;7366201;19;20035;-69
2023/06/06 00:35:48;;;;;;;4.47;3.60;;;16.00;1.00;;;;;;7365516;19;20031;-70
2023/06/06 00:38:18;;;;;;;4.85;3.80;;;15.80;1.00;;;;;;7365560;19;20010;-68
2023/06/06 00:40:48;;;;;;;5.20;3.58;;;15.80;1.00;;;;;;7378102;19;20295;-69
2023/06/06 00:43:21;;;;;;;3.47;3.15;;;15.80;1.00;;;;;;7386235;19;20015;-69
2023/06/06 00:45:51;;;;;;;3.75;3.10;;;15.70;1.00;;;;;;7365489;19;20049;-69
2023/06/06 00:48:22;;;;;;;4.38;3.70;;;15.70;1.00;;;;;;7364527;19;20043;-69
2023/06/06 00:50:53;;;;;;;4.28;3.65;;;15.80;1.00;;;;;;7363199;19;20019;-69
2023/06/06 00:53:23;;;;;;;6.32;3.97;;;15.80;1.00;;;;;;7367329;19;20030;-69
2023/06/06 00:55:54;;;;;;;4.13;3.70;;;15.80;1.00;;;;;;7365525;19;20474;-69
2023/06/06 00:58:27;;;;;;;5.40;3.95;;;15.80;1.00;;;;;;7385572;19;20082;-69
2023/06/06 01:00:58;;;;;;;7.72;4.10;;;15.80;1.00;;;;;;7361185;19;20077;-69
2023/06/06 01:03:29;;;;;;;6.03;4.15;;;15.80;1.00;;;;;;7364759;19;20013;-69
2023/06/06 01:06:00;;;;;;;4.20;3.53;;;15.80;1.00;;;;;;7368604;19;20018;-68
2023/06/06 01:08:30;;;;;;;7.93;3.90;;;15.90;1.00;;;;;;7364355;19;20312;-69
2023/06/06 01:11:13;;;;;;;5.15;4.00;;;16.00;1.00;;;;;;7361496;19;20014;-69
2023/06/06 01:13:54;;;;;;;5.25;3.90;;;16.10;1.00;;;;;;7385786;19;20050;-69
2023/06/06 01:16:25;;;;;;;5.30;3.65;;;16.10;1.00;;;;;;7364030;19;20380;-69
2023/06/06 01:18:58;;;;;;;4.63;4.10;;;16.10;1.00;;;;;;7364977;19;20014;-69
2023/06/06 01:21:36;;;;;;;5.10;4.13;;;16.00;1.00;;;;;;7362919;19;20010;-69
2023/06/06 01:24:08;;;;;;;5.50;4.25;;;16.10;1.00;;;;;;7363243;19;20015;-69
2023/06/06 01:26:38;;;;;;;5.05;4.05;;;16.00;1.00;;;;;;7363662;19;20108;-68
2023/06/06 01:29:08;;;;;;;3.58;3.28;;;16.10;1.00;;;;;;7363855;19;20023;-68
2023/06/06 01:31:44;;;;;;;4.90;3.70;;;16.00;1.00;;;;;;7383853;19;20018;-68
2023/06/06 01:34:28;;;;;;;4.90;3.70;;;16.00;1.00;;;;;;7363174;19;20010;-69
2023/06/06 01:37:08;;;;;;;5.22;3.30;;;16.00;1.00;;;;;;7364055;19;20011;-68
2023/06/06 01:39:42;;;;;;;3.67;3.30;;;15.80;1.00;;;;;;7364313;19;20466;-68
2023/06/06 01:42:13;;;;;;;4.37;3.53;;;15.80;1.00;;;;;;7363727;19;20461;-68
2023/06/06 01:44:44;;;;;;;3.58;3.28;;;15.80;1.00;;;;;;7362270;19;20018;-68
2023/06/06 01:47:14;;;;;;;4.50;3.70;;;15.70;1.00;;;;;;7363150;19;20010;-68
2023/06/06 01:49:46;;;;;;;6.13;3.83;;;15.60;1.00;;;;;;7385363;19;20011;-68
2023/06/06 01:52:21;;;;;;;5.65;3.60;;;15.50;1.00;;;;;;7364048;19;20133;-68
2023/06/06 01:54:52;;;;;;;4.10;3.40;;;15.50;1.00;;;;;;7362041;19;20028;-68
2023/06/06 01:57:22;;;;;;;6.95;4.10;;;15.40;1.00;;;;;;7363008;19;20014;-68
2023/06/06 01:59:52;;;;;;;5.25;3.85;;;15.40;1.00;;;;;;7362662;19;20073;-68
2023/06/06 02:02:22;;;;;;;6.28;4.00;;;15.20;1.00;;;;;;7364768;19;20121;-68
2023/06/06 02:04:52;;;;;;;6.15;4.10;;;15.10;1.00;;;;;;7364893;19;20311;-69
2023/06/06 02:07:25;;;;;;;6.82;4.50;;;15.10;1.00;;;;;;7387077;19;20022;-69
2023/06/06 02:09:55;;;;;;;5.70;4.47;;;15.10;1.00;;;;;;7362775;19;20018;-69
2023/06/06 02:12:25;;;;;;;6.20;4.20;;;14.90;1.00;;;;;;7362206;19;20018;-69
2023/06/06 02:14:56;;;;;;;6.43;4.25;;;14.90;1.00;;;;;;7362290;19;20011;-69
2023/06/06 02:17:26;;;;;;;6.10;4.35;;;14.80;1.00;;;;;;7362556;19;20018;-69
2023/06/06 02:19:56;;;;;;;6.78;4.53;;;14.80;1.00;;;;;;7363222;19;20081;-69
2023/06/06 02:22:29;;;;;;;5.00;4.43;;;14.70;1.00;;;;;;7385626;19;20014;-69
2023/06/06 02:24:59;;;;;;;5.68;4.25;;;14.70;1.00;;;;;;7361653;19;20014;-69
2023/06/06 02:27:29;;;;;;;8.23;4.80;;;14.60;1.00;;;;;;7362525;19;20010;-69
2023/06/06 02:29:59;;;;;;;5.20;4.70;;;14.60;1.00;;;;;;7360824;19;20021;-69
2023/06/06 02:32:29;;;;;;;6.55;4.88;;;14.60;1.00;;;;;;7362071;19;20479;-69
2023/06/06 02:34:59;;;;;;;6.70;4.93;;;14.50;1.00;;;;;;7360376;19;20042;-69
2023/06/06 02:37:32;;;;;;;5.70;4.75;;;14.50;1.00;;;;;;7386985;19;20031;-69
2023/06/06 02:40:08;;;;;;;5.70;5.10;;;14.40;1.00;;;;;;7359882;19;20018;-69
2023/06/06 02:42:39;;;;;;;7.25;5.28;;;14.40;1.00;;;;;;7361734;19;20017;-69
2023/06/06 02:45:12;;;;;;;6.90;5.13;;;14.40;1.00;;;;;;7359476;19;20494;-69
2023/06/06 02:47:42;;;;;;;5.20;4.70;;;14.30;1.00;;;;;;7362385;19;20010;-69
2023/06/06 02:50:13;;;;;;;5.18;4.53;;;14.30;1.00;;;;;;7361663;19;20416;-69
2023/06/06 02:52:45;;;;;;;6.78;5.35;;;14.30;1.00;;;;;;7385574;19;20014;-69
2023/06/06 02:55:15;;;;;;;5.65;5.00;;;14.30;1.00;;;;;;7359605;19;20693;-69
2023/06/06 02:57:45;;;;;;;6.00;5.15;;;14.30;1.00;;;;;;7364188;19;20011;-69
2023/06/06 03:00:16;;;;;;;6.18;5.10;;;14.30;1.00;;;;;;7360861;19;20010;-69
2023/06/06 03:02:45;;;;;;;6.28;5.45;;;14.30;1.00;;;;;;7360761;19;20014;-69
2023/06/06 03:05:17;;;;;;;6.18;5.20;;;14.20;1.00;;;;;;7359920;19;20474;-69
2023/06/06 03:07:49;;;;;;;6.95;5.70;;;14.10;1.00;;;;;;7382435;19;20014;-69
2023/06/06 03:10:19;;;;;;;6.93;5.47;;;14.20;1.70;;;;;;7360402;19;20035;-69
2023/06/06 03:12:49;;;;;;;6.45;5.30;;;14.10;2.00;;;;;;7360523;19;20014;-69
2023/06/06 03:15:20;;;;;;;7.00;5.50;;;14.10;2.60;;;;;;7360177;19;20022;-69
2023/06/06 03:17:50;;;;;;;7.30;5.68;;;14.10;3.10;;;;;;7360641;19;20038;-69
2023/06/06 03:20:20;;;;;;;6.47;5.40;;;14.00;3.10;;;;;;7360486;19;20010;-69
2023/06/06 03:22:52;;;;;;;7.03;5.90;;;14.00;4.60;;;;;;7376404;19;20022;-69
2023/06/06 03:25:25;;;;;;;9.57;5.47;;;14.00;4.10;;;;;;7380557;19;20019;-68
2023/06/06 03:27:54;;;;;;;10.25;6.10;;;14.00;3.90;;;;;;7360730;19;20042;-68
2023/06/06 03:30:24;;;;;;;7.85;5.97;;;14.00;5.20;;;;;;7358050;19;20035;-68
2023/06/06 03:32:55;;;;;;;7.03;5.60;;;14.00;4.10;;;;;;7360518;19;20021;-68
2023/06/06 03:35:26;;;;;;;6.22;5.28;;;14.00;4.40;;;;;;7359093;19;20021;-68
2023/06/06 03:37:59;;;;;;;8.77;5.95;;;14.00;4.30;;;;;;7359427;19;20044;-69
2023/06/06 03:40:29;;;;;;;8.70;5.63;;;14.10;3.50;;;;;;7381326;19;20018;-69
2023/06/06 03:42:59;;;;;;;6.25;5.43;;;14.50;1.00;;;;;;7360092;19;20604;-69
2023/06/06 03:45:29;;;;;;;6.78;5.80;;;15.00;1.00;;;;;;7358107;19;20390;-69
2023/06/06 03:47:59;;;;;;;7.05;5.40;;;15.30;1.00;;;;;;7360171;19;20407;-69
2023/06/06 03:50:29;;;;;;;5.60;5.03;;;15.50;1.00;;;;;;7361134;19;20058;-69
2023/06/06 03:53:02;;;;;;;8.60;5.07;;;15.70;1.00;;;;;;7367855;19;20027;-69
2023/06/06 03:55:33;;;;;;;9.00;5.35;;;15.80;1.00;;;;;;7391300;19;20044;-69
2023/06/06 03:58:03;;;;;;;5.40;4.22;;;15.90;1.00;;;;;;7365795;19;20014;-68
2023/06/06 04:00:35;;;;;;;5.70;4.45;;;16.20;1.00;;;;;;7367092;19;20015;-68
2023/06/06 04:03:11;;;;;;;7.65;4.93;;;16.20;1.00;;;;;;7368145;19;20027;-68
2023/06/06 04:05:44;;;;;;;6.78;4.57;;;16.60;1.00;;;;;;7365641;19;20018;-68
2023/06/06 04:08:17;;;;;;;5.55;4.75;;;17.20;1.00;;;;;;7370303;19;20018;-68
2023/06/06 04:10:47;;;;;;;6.60;4.95;;;17.20;1.00;;;;;;7388494;19;20515;-69
2023/06/06 04:13:17;;;;;;;6.20;4.95;;;17.50;1.00;;;;;;7366163;19;20768;-68
2023/06/06 04:15:49;;;;;;;5.32;4.78;;;17.60;1.00;;;;;;7368867;19;20018;-68
2023/06/06 04:18:19;;;;;;;6.82;4.78;;;17.90;1.00;;;;;;7365434;19;20384;-69
2023/06/06 04:20:52;;;;;;;5.65;4.93;;;17.90;1.00;;;;;;7366050;19;20015;-69
2023/06/06 04:23:25;;;;;;;6.32;4.70;;;18.40;1.00;;;;;;7368274;19;20014;-68
2023/06/06 04:25:56;;;;;;;7.47;4.85;;;18.40;1.00;;;;;;7366184;19;20613;-68
2023/06/06 04:28:27;;;;;;;7.00;4.88;;;18.80;1.00;;;;;;7386511;19;20018;-68
2023/06/06 04:30:57;;;;;;;9.27;4.95;;;19.20;1.00;;;;;;7366918;19;20081;-68
2023/06/06 04:33:28;;;;;;;6.60;4.80;;;19.00;1.00;;;;;;7364709;19;20015;-68
2023/06/06 04:36:00;;;;;;;4.95;4.45;;;19.20;1.00;;;;;;7366410;19;20038;-68
2023/06/06 04:38:33;;;;;;;6.18;4.38;;;19.20;1.00;;;;;;7364717;19;20099;-69
2023/06/06 04:41:04;;;;;;;4.70;4.20;;;19.60;1.00;;;;;;7366013;19;20029;-69
2023/06/06 04:43:54;;;;;;;6.07;4.05;;;19.80;1.00;;;;;;7364143;19;20371;-69
2023/06/06 04:46:24;;;;;;;6.80;4.68;;;19.70;1.00;;;;;;7386385;19;20762;-68
2023/06/06 04:48:59;;;;;;;4.93;4.15;;;19.80;1.00;;;;;;7364560;19;20653;-68
2023/06/06 04:51:33;;;;;;;6.32;4.05;;;20.20;1.00;;;;;;7368497;19;20014;-68
2023/06/06 04:54:08;;;;;;;6.68;4.28;;;20.70;1.00;;;;;;7364090;19;20011;-68
2023/06/06 04:56:38;;;;;;;5.72;5.10;;;21.20;1.00;;;;;;7365647;19;20010;-68
2023/06/06 04:59:09;;;;;;;6.03;4.88;;;21.20;1.00;;;;;;7363928;19;20025;-68
2023/06/06 05:01:41;;;;;;;5.50;4.03;;;20.90;1.00;;;;;;7384281;19;20332;-68
2023/06/06 05:04:11;;;;;;;5.93;4.50;;;21.30;1.00;;;;;;7354807;19;20320;-69
2023/06/06 05:06:41;;;;;;;5.10;3.85;;;20.90;1.00;;;;;;7368139;19;20117;-68
2023/06/06 05:09:14;;;;;;;9.15;4.75;;;19.90;1.00;;;;;;7363849;19;20021;-68
2023/06/06 05:11:48;;;;;;;9.00;4.40;;;20.30;1.00;;;;;;7364112;19;20466;-67
2023/06/06 05:14:23;;;;;;;6.35;4.35;;;20.00;1.00;;;;;;7364473;19;20450;-67
2023/06/06 05:16:53;;;;;;;6.40;4.65;;;20.90;1.00;;;;;;7364388;19;20042;-68
2023/06/06 05:19:23;;;;;;;9.20;4.57;;;20.80;1.00;;;;;;7387075;19;20023;-68
2023/06/06 05:21:53;;;;;;;6.40;4.80;;;21.30;1.00;;;;;;7366759;19;20010;-69
2023/06/06 05:24:26;;;;;;;7.38;4.88;;;20.20;1.00;;;;;;7363428;19;20753;-68
2023/06/06 05:26:56;;;;;;;5.68;4.35;;;21.00;1.00;;;;;;7364377;19;20011;-68
2023/06/06 05:29:27;;;;;;;7.60;4.07;;;21.60;1.00;;;;;;7363874;19;20014;-68
2023/06/06 05:31:57;;;;;;;6.55;4.63;;;21.20;1.00;;;;;;7362848;19;20019;-68
2023/06/06 05:34:27;;;;;;;5.30;3.90;;;21.40;1.00;;;;;;7384225;19;20026;-68
2023/06/06 05:36:57;;;;;;;7.50;4.10;;;21.10;1.00;;;;;;7362475;19;20474;-68
2023/06/06 05:39:30;;;;;;;5.00;4.10;;;20.80;1.00;;;;;;7361212;19;20034;-68
2023/06/06 05:42:00;;;;;;;6.32;3.72;;;20.80;1.00;;;;;;7363312;19;20015;-67
2023/06/06 05:44:30;;;;;;;6.88;3.28;;;20.90;1.00;;;;;;7363407;19;20014;-68
2023/06/06 05:47:00;;;;;;;5.72;3.85;;;20.90;1.00;;;;;;7366136;19;20018;-68
2023/06/06 05:49:31;;;;;;;5.47;3.45;;;19.80;1.00;;;;;;7382528;19;20014;-68
2023/06/06 05:52:02;;;;;;;6.25;3.45;;;20.00;1.00;;;;;;7364513;19;20014;-68
2023/06/06 05:54:34;;;;;;;4.13;3.53;;;19.90;1.00;;;;;;7362584;19;20039;-68
2023/06/06 05:57:22;;;;;;;4.88;3.30;;;21.00;1.00;;;;;;7363114;19;20014;-68
2023/06/06 05:59:52;;;;;;;4.53;3.38;;;20.60;1.00;;;;;;7360497;19;20014;-68
2023/06/06 06:02:22;;;;;;;4.90;3.53;;;21.60;1.00;;;;;;7362279;19;20018;-69
2023/06/06 06:04:53;;;;;;;4.38;3.67;;;21.50;1.00;;;;;;7370001;19;20680;-68
2023/06/06 06:07:27;;;;;;;5.18;3.40;;;19.90;1.00;;;;;;7388025;19;20026;-69
2023/06/06 06:10:00;;;;;;;4.43;3.60;;;19.30;1.00;;;;;;7359870;19;20014;-68
2023/06/06 06:12:30;;;;;;;5.15;3.33;;;18.70;1.00;;;;;;7364265;19;20017;-68
2023/06/06 06:15:00;;;;;;;5.78;3.47;;;19.00;1.00;;;;;;7361270;19;20019;-68
2023/06/06 06:17:31;;;;;;;6.97;3.17;;;19.30;1.00;;;;;;7361210;19;20018;-69
2023/06/06 06:20:06;;;;;;;4.68;3.80;;;19.60;1.00;;;;;;7359440;19;20010;-69
2023/06/06 06:22:36;;;;;;;5.22;3.60;;;19.50;1.00;;;;;;7386040;19;20025;-69
2023/06/06 06:25:12;;;;;;;5.72;3.63;;;19.50;1.00;;;;;;7363920;19;20018;-69
2023/06/06 06:27:42;;;;;;;6.25;3.20;;;20.00;1.00;;;;;;7361881;19;20011;-69
2023/06/06 06:30:14;;;;;;;4.90;3.60;;;20.50;1.00;;;;;;7362571;19;20014;-69
2023/06/06 06:32:45;;;;;;;4.07;3.50;;;20.50;1.00;;;;;;7362182;19;20053;-69
2023/06/06 06:35:16;;;;;;;5.07;3.40;;;20.90;1.00;;;;;;7360901;19;20074;-69
2023/06/06 06:37:47;;;;;;;6.40;3.90;;;21.50;1.00;;;;;;7382458;19;20015;-69
2023/06/06 06:40:20;;;;;;;4.03;3.45;;;21.70;1.00;;;;;;7359914;19;20014;-69
2023/06/06 06:42:50;;;;;;;5.50;3.85;;;21.70;1.00;;;;;;7362510;19;20014;-69
2023/06/06 06:45:23;;;;;;;5.20;3.38;;;20.50;1.00;;;;;;7362492;19;20470;-69
2023/06/06 06:47:53;;;;;;;4.63;3.45;;;20.30;1.00;;;;;;7361650;19;20665;-69
2023/06/06 06:50:23;;;;;;;4.28;3.85;;;20.50;1.00;;;;;;7359150;19;20048;-69
2023/06/06 06:52:53;;;;;;;4.13;3.72;;;20.80;1.00;;;;;;7367553;19;20465;-69
2023/06/06 06:55:26;;;;;;;6.05;3.67;;;20.50;1.00;;;;;;7385047;19;20018;-69
2023/06/06 06:57:59;;;;;;;5.53;3.95;;;20.50;1.00;;;;;;7361829;19;20011;-69
2023/06/06 07:00:29;;;;;;;6.45;3.58;;;20.50;1.00;;;;;;7360647;19;20420;-69
2023/06/06 07:02:59;;;;;;;5.30;3.83;;;20.20;1.00;;;;;;7361020;19;20006;-69
2023/06/06 07:05:29;;;;;;;8.63;3.47;;;20.30;1.00;;;;;;7361362;19;20026;-70
2023/06/06 07:08:00;;;;;;;6.65;3.67;;;20.00;1.00;;;;;;7362127;19;20482;-68
2023/06/06 07:10:34;;;;;;;6.20;4.03;;;20.50;1.00;;;;;;7383720;19;20018;-68
2023/06/06 07:13:04;;;;;;;4.78;3.45;;;20.70;1.00;;;;;;7361089;19;20426;-68
2023/06/06 07:15:39;;;;;;;4.53;3.60;;;20.50;1.00;;;;;;7361169;19;20018;-68
2023/06/06 07:18:09;;;;;;;5.20;4.00;;;20.60;1.00;;;;;;7360773;19;20014;-68
2023/06/06 07:20:39;;;;;;;4.20;3.75;;;20.10;1.00;;;;;;7360195;19;20014;-68
2023/06/06 07:23:09;;;;;;;8.25;3.80;;;20.10;1.00;;;;;;7361935;19;20536;-68
2023/06/06 07:25:43;;;;;;;5.78;3.90;;;20.20;1.00;;;;;;7382061;19;20010;-69
2023/06/06 07:28:14;;;;;;;4.88;4.00;;;20.00;1.00;;;;;;7356700;19;20013;-68
2023/06/06 07:30:44;;;;;;;5.18;4.05;;;20.30;1.00;;;;;;7347905;19;20051;-68
2023/06/06 07:33:13;;;;;;;6.70;4.40;;;20.20;1.00;;;;;;7352425;19;20011;-69
2023/06/06 07:35:43;;;;;;;6.60;3.67;;;20.80;1.00;;;;;;7352486;19;20014;-68
2023/06/06 07:38:14;;;;;;;6.68;3.40;;;20.90;1.00;;;;;;7350409;19;20043;-69
2023/06/06 07:40:47;;;;;;;7.25;3.95;;;21.30;1.00;;;;;;7373105;19;20121;-69
2023/06/06 07:43:17;;;;;;;4.90;3.53;;;20.90;1.00;;;;;;7352483;19;20010;-69
2023/06/06 07:45:47;;;;;;;9.07;3.72;;;21.60;1.00;;;;;;7352627;19;20007;-69
2023/06/06 07:48:17;;;;;;;6.30;3.67;;;21.80;1.00;;;;;;7352394;19;20018;-70
2023/06/06 07:50:47;;;;;;;9.13;3.47;;;21.60;1.00;;;;;;7351349;19;20020;-69
2023/06/06 07:53:17;;;;;;;4.20;3.20;;;20.90;1.00;;;;;;7351783;19;20011;-69
2023/06/06 07:55:49;;;;;;;5.72;3.60;;;20.80;1.00;;;;;;7374681;19;20010;-69
2023/06/06 07:58:25;;;;;;;10.32;3.80;;;21.10;1.00;;;;;;7352465;19;20601;-69
2023/06/06 08:00:58;;;;;;;5.50;3.50;;;21.20;1.00;;;;;;7347854;19;20063;-69
2023/06/06 08:03:28;;;;;;;11.35;3.38;;;21.30;1.00;;;;;;7349452;19;20075;-69
2023/06/06 08:05:58;;;;;;;6.10;3.72;;;21.60;1.00;;;;;;7349480;19;20079;-69
2023/06/06 08:08:28;;;;;;;7.05;3.50;;;21.30;1.00;;;;;;7350387;19;20011;-69
2023/06/06 08:11:01;;;;;;;3.80;3.35;;;21.20;1.00;;;;;;7349036;19;20039;-69
2023/06/06 08:13:31;;;;;;;5.82;3.63;;;21.20;1.00;;;;;;7372393;19;20015;-69
2023/06/06 08:16:01;;;;;;;4.97;3.50;;;21.70;1.00;;;;;;7350226;19;20014;-68
2023/06/06 08:18:31;;;;;;;4.65;3.38;;;22.00;1.00;;;;;;7349718;19;20043;-68
2023/06/06 08:21:01;;;;;;;3.95;3.25;;;21.80;1.00;;;;;;7349833;19;20006;-69
2023/06/06 08:23:31;;;;;;;4.78;2.95;;;21.80;1.00;;;;;;7350339;19;20006;-69
2023/06/06 08:26:04;;;;;;;3.60;2.97;;;21.60;1.00;;;;;;7350925;19;20014;-69
2023/06/06 08:28:35;;;;;;;5.28;2.90;;;21.70;1.00;;;;;;7372460;19;20738;-69
2023/06/06 08:31:05;;;;;;;4.85;3.33;;;21.70;1.00;;;;;;7348440;19;20013;-69
2023/06/06 08:33:35;;;;;;;8.35;3.50;;;22.00;1.00;;;;;;7349222;19;20011;-69
2023/06/06 08:36:06;;;;;;;3.85;3.28;;;22.40;1.00;;;;;;7350639;19;20129;-69
2023/06/06 08:38:38;;;;;;;4.63;2.90;;;22.00;1.00;;;;;;7355725;19;20086;-68
2023/06/06 08:41:13;;;;;;;7.35;3.50;;;22.40;1.00;;;;;;7353234;19;20388;-69
2023/06/06 08:43:49;;;;;;;3.92;3.20;;;22.40;1.00;;;;;;7379556;19;20538;-69
2023/06/06 08:46:19;;;;;;;4.38;3.03;;;22.10;1.00;;;;;;7357420;19;20014;-68
2023/06/06 08:48:50;;;;;;;5.00;3.13;;;22.60;1.00;;;;;;7357500;19;20486;-69
2023/06/06 08:51:27;;;;;;;4.70;3.05;;;22.00;1.00;;;;;;7355698;19;20014;-69
2023/06/06 08:54:00;;;;;;;8.27;2.92;;;22.10;1.00;;;;;;7356914;19;20597;-68
2023/06/06 08:56:33;;;;;;;4.82;3.05;;;22.40;1.00;;;;;;7357792;19;20127;-69
2023/06/06 08:59:03;;;;;;;3.85;3.03;;;22.60;1.00;;;;;;7357309;19;20021;-69
2023/06/06 09:01:35;;;;;;;6.90;5.93;;;22.70;1.00;;;;;;7379049;19;20081;-69
2023/06/06 09:04:06;;;;;;;5.15;2.97;;;22.80;1.00;;;;;;7356573;19;20125;-69
2023/06/06 09:06:38;;;;;;;5.45;3.10;;;23.00;1.00;;;;;;7357221;19;20030;-69
2023/06/06 09:09:09;;;;;;;4.95;3.00;;;23.00;1.00;;;;;;7357942;19;20027;-68
2023/06/06 09:11:42;;;;;;;4.70;2.90;;;23.40;1.00;;;;;;7357528;19;20018;-68
2023/06/06 09:14:12;;;;;;;6.35;3.22;;;23.80;1.00;;;;;;7356382;19;20048;-68
2023/06/06 09:16:42;;;;;;;5.85;3.00;;;23.20;1.00;;;;;;7378932;19;20089;-68
2023/06/06 09:19:12;;;;;;;4.40;2.85;;;22.50;1.00;;;;;;7355736;19;20007;-70
2023/06/06 09:21:42;;;;;;;8.52;3.25;;;23.10;1.00;;;;;;7356112;19;20019;-70
2023/06/06 09:24:12;;;;;;;4.90;3.05;;;23.30;1.00;;;;;;7358983;19;20466;-69
2023/06/06 09:26:45;;;;;;;5.30;3.03;;;23.10;1.00;;;;;;7357893;19;20086;-69
2023/06/06 09:29:15;;;;;;;5.07;3.50;;;23.60;1.00;;;;;;7380446;19;20051;-69
2023/06/06 09:31:48;;;;;;;4.18;3.13;;;23.60;1.00;;;;;;7359346;19;20017;-69
2023/06/06 09:34:25;;;;;;;3.92;3.30;;;23.00;1.00;;;;;;7297463;19;20371;-68
2023/06/06 09:36:57;;;;;;;5.22;3.13;;;23.00;1.00;;;;;;7379301;19;20535;-69
2023/06/06 09:39:27;;;;;;;7.15;3.22;;;22.70;1.00;;;;;;7332531;19;20019;-69
2023/06/06 09:41:59;;;;;;;4.03;2.70;;;22.50;1.00;;;;;;7380250;19;20118;-70
2023/06/06 09:44:30;;;;;;;5.32;3.30;;;22.80;1.00;;;;;;7352381;19;20014;-69
2023/06/06 09:47:02;;;;;;;7.28;3.25;;;23.30;1.00;;;;;;7380408;19;20018;-69
2023/06/06 09:49:36;;;;;;;8.25;3.08;;;23.30;1.00;;;;;;7355974;19;20017;-69
2023/06/06 09:52:07;;;;;;;3.97;3.00;;;23.90;1.00;;;;;;7356057;19;20008;-70
2023/06/06 09:54:42;;;;;;;6.13;3.35;;;24.10;1.00;;;;;;7378134;19;20046;-68
2023/06/06 09:57:18;;;;;;;5.68;3.38;;;24.10;1.00;;;;;;7356415;19;20281;-70
2023/06/06 09:59:49;;;;;;;5.35;3.50;;;23.80;1.00;;;;;;7354900;19;20915;-69
2023/06/06 10:02:23;;;;;;;4.97;3.88;;;23.20;1.00;;;;;;7356625;19;20018;-69
2023/06/06 10:04:54;;;;;;;4.95;3.40;;;23.30;1.00;;;;;;7354418;19;20019;-69
2023/06/06 10:07:26;;;;;;;5.65;3.58;;;23.10;1.00;;;;;;7355713;19;20018;-69
2023/06/06 10:09:56;;;;;;;4.18;3.40;;;23.30;1.00;;;;;;7353725;19;20014;-68
2023/06/06 10:12:31;;;;;;;4.57;3.03;;;23.30;1.00;;;;;;7376971;19;20473;-68
2023/06/06 10:15:04;;;;;;;6.55;3.60;;;23.00;1.00;;;;;;7301892;19;20084;-68
2023/06/06 10:17:37;;;;;;;3.72;2.88;;;23.20;1.00;;;;;;7380379;19;20495;-69
2023/06/06 10:20:09;;;;;;;4.72;3.47;;;23.60;1.00;;;;;;7354578;19;20538;-70
2023/06/06 10:22:41;;;;;;;6.53;3.33;;;23.70;1.00;;;;;;7355443;19;20042;-68
2023/06/06 10:25:13;;;;;;;5.80;3.30;;;23.60;1.00;;;;;;7355079;19;20042;-69
2023/06/06 10:27:53;;;;;;;7.68;3.72;;;23.70;1.00;;;;;;7375934;19;20467;-69
2023/06/06 10:30:39;;;;;;;8.40;3.42;;;23.70;1.00;;;;;;7353254;19;20076;-70
2023/06/06 10:33:20;;;;;;;5.90;3.58;;;23.80;1.00;;;;;;7354793;19;20034;-69
2023/06/06 10:35:55;;;;;;;4.05;3.22;;;23.70;1.00;;;;;;7353204;19;20502;-69
2023/06/06 10:38:25;;;;;;;3.88;3.33;;;23.20;1.00;;;;;;7354239;19;20039;-68
2023/06/06 10:40:58;;;;;;;5.95;3.38;;;23.10;1.00;;;;;;7352607;19;20010;-69
2023/06/06 10:43:55;;;;;;;5.15;3.47;;;23.50;1.00;;;;;;7353035;19;20022;-68
2023/06/06 10:46:25;;;;;;;5.97;3.72;;;23.70;1.00;;;;;;7353905;19;20516;-69
2023/06/06 10:49:00;;;;;;;4.43;3.42;;;23.50;1.00;;;;;;7355222;19;20011;-69
2023/06/06 10:51:36;;;;;;;6.15;3.65;;;23.60;1.00;;;;;;7384990;19;20430;-68
2023/06/06 10:54:19;;;;;;;5.32;3.40;;;23.40;1.00;;;;;;7363600;19;20019;-69
2023/06/06 10:56:52;;;;;;;7.40;3.20;;;24.10;1.00;;;;;;7364221;19;20481;-69
2023/06/06 10:59:31;;;;;;;4.95;3.17;;;24.10;1.00;;;;;;7362204;19;20010;-69
2023/06/06 11:02:02;;;;;;;5.97;3.45;;;23.70;1.00;;;;;;7362150;19;20017;-69
2023/06/06 11:04:34;;;;;;;4.13;3.22;;;23.90;1.00;;;;;;7363155;19;20723;-70
2023/06/06 11:07:18;;;;;;;8.60;3.92;;;23.70;1.00;;;;;;7362176;19;20081;-69
2023/06/06 11:09:50;;;;;;;4.65;3.22;;;23.90;1.00;;;;;;7385458;19;20077;-67
2023/06/06 11:12:30;;;;;;;3.50;3.20;;;23.80;1.00;;;;;;7363625;19;20007;-68
2023/06/06 11:15:06;;;;;;;5.95;3.40;;;23.90;1.00;;;;;;7363839;19;20014;-67
2023/06/06 11:17:49;;;;;;;4.63;3.10;;;24.10;1.00;;;;;;7365459;19;20022;-68
2023/06/06 11:20:24;;;;;;;4.35;3.25;;;24.40;1.00;;;;;;7361188;19;20049;-69
2023/06/06 11:23:01;;;;;;;4.03;3.30;;;24.00;1.00;;;;;;7362287;19;20092;-69
2023/06/06 11:25:32;;;;;;;4.45;2.90;;;24.20;1.00;;;;;;7363176;19;20027;-69
2023/06/06 11:28:02;;;;;;;3.90;3.35;;;24.10;1.00;;;;;;7362727;19;20031;-68
2023/06/06 11:30:39;;;;;;;5.25;2.80;;;23.80;1.00;;;;;;7383795;19;20014;-68
2023/06/06 11:33:11;;;;;;;5.60;3.40;;;24.40;1.00;;;;;;7363255;19;20011;-69
2023/06/06 11:35:42;;;;;;;5.00;3.38;;;24.20;1.00;;;;;;7359331;19;20034;-69
2023/06/06 11:38:12;;;;;;;6.60;3.42;;;24.40;1.00;;;;;;7364648;19;20085;-68
2023/06/06 11:40:42;;;;;;;6.10;3.30;;;24.50;1.00;;;;;;7361731;19;20020;-69
2023/06/06 11:43:12;;;;;;;4.45;3.05;;;24.10;1.00;;;;;;7363824;19;20129;-67
2023/06/06 11:45:44;;;;;;;6.55;3.30;;;24.10;1.00;;;;;;7384223;19;20582;-69
2023/06/06 11:48:25;;;;;;;4.87;3.20;;;24.20;1.00;;;;;;7363578;19;20021;-68
2023/06/06 11:50:55;;;;;;;4.13;3.10;;;24.20;1.00;;;;;;7360675;19;20073;-68
2023/06/06 11:53:30;;;;;;;5.00;3.30;;;24.10;1.00;;;;;;7362657;19;20019;-69
2023/06/06 11:56:01;;;;;;;6.78;3.28;;;24.10;1.00;;;;;;7363428;19;20605;-68
2023/06/06 11:58:33;;;;;;;3.47;2.70;;;24.20;1.00;;;;;;7363661;19;20018;-68
2023/06/06 12:01:10;;;;;;;4.70;3.42;;;24.30;1.00;;;;;;7361372;19;20031;-68
2023/06/06 12:03:42;;;;;;;4.00;3.08;;;24.10;1.00;;;;;;7384432;19;20007;-69
2023/06/06 12:06:12;;;;;;;7.13;3.10;;;24.60;1.00;;;;;;7362109;19;20146;-68
2023/06/06 12:08:43;;;;;;;8.45;3.17;;;24.70;1.00;;;;;;7362641;19;20038;-69
2023/06/06 12:11:23;;;;;;;7.75;3.30;;;24.60;1.00;;;;;;7362617;19;20006;-69
2023/06/06 12:13:54;;;;;;;4.10;3.25;;;24.90;1.00;;;;;;7370022;19;20111;-68
2023/06/06 12:16:29;;;;;;;5.70;3.42;;;24.40;1.00;;;;;;7370875;19;20014;-68
2023/06/06 12:18:59;;;;;;;5.82;2.90;;;25.00;1.00;;;;;;7388293;19;20014;-69
2023/06/06 12:21:29;;;;;;;4.85;3.50;;;24.30;1.00;;;;;;7369924;19;20749;-69
2023/06/06 12:24:18;;;;;;;5.45;3.30;;;24.30;1.00;;;;;;7367575;19;20014;-69
2023/06/06 12:26:53;;;;;;;5.90;3.65;;;24.40;1.00;;;;;;7366907;19;20090;-68
2023/06/06 12:29:23;;;;;;;5.85;3.35;;;24.70;1.00;;;;;;7369550;19;20010;-68
2023/06/06 12:32:15;;;;;;;3.55;3.22;;;24.40;1.00;;;;;;7369288;19;20482;-69
2023/06/06 12:34:48;;;;;;;4.43;3.80;;;24.40;1.00;;;;;;7365973;19;20356;-68
2023/06/06 12:37:18;;;;;;;4.30;3.50;;;24.70;1.00;;;;;;7364167;19;20018;-69
2023/06/06 12:39:49;;;;;;;6.85;3.42;;;24.30;1.00;;;;;;7384949;19;20038;-69
2023/06/06 12:42:20;;;;;;;3.85;3.33;;;24.80;1.00;;;;;;7368220;19;20014;-68
2023/06/06 12:44:50;;;;;;;5.15;3.70;;;24.80;1.00;;;;;;7365954;19;20010;-69
2023/06/06 12:47:22;;;;;;;5.88;3.15;;;24.80;1.00;;;;;;7365112;19;20513;-69
2023/06/06 12:49:52;;;;;;;4.50;3.40;;;25.00;1.00;;;;;;7359754;19;20014;-68
2023/06/06 12:52:22;;;;;;;6.55;3.15;;;25.00;1.00;;;;;;7367653;19;20038;-67
2023/06/06 12:54:52;;;;;;;6.97;3.10;;;25.00;1.00;;;;;;7384083;19;20045;-68
2023/06/06 12:57:22;;;;;;;6.05;3.42;;;24.80;1.00;;;;;;7362772;19;20013;-69
2023/06/06 12:59:52;;;;;;;5.25;3.13;;;25.30;1.00;;;;;;7364528;19;20439;-68
2023/06/06 13:02:25;;;;;;;4.97;3.47;;;25.40;1.00;;;;;;7361866;19;21097;-69
2023/06/06 13:04:55;;;;;;;11.65;3.30;;;25.10;1.00;;;;;;7362676;19;20071;-70
2023/06/06 13:07:25;;;;;;;4.30;3.22;;;25.10;1.00;;;;;;7316491;19;20032;-69
2023/06/06 13:09:56;;;;;;;5.10;3.28;;;25.00;1.00;;;;;;7383149;19;20032;-70
2023/06/06 13:12:26;;;;;;;5.43;3.40;;;25.20;1.00;;;;;;7390051;19;20350;-69
2023/06/06 13:14:57;;;;;;;11.82;3.60;;;25.20;1.00;;;;;;7364420;19;20577;-70
2023/06/06 13:17:29;;;;;;;4.65;2.95;;;25.80;1.00;;;;;;7365165;19;20037;-70
2023/06/06 13:19:59;;;;;;;5.85;3.20;;;26.00;1.00;;;;;;7366275;19;20018;-69
2023/06/06 13:22:29;;;;;;;5.47;3.50;;;25.60;1.00;;;;;;7365588;19;20025;-70